Mariq — SVA2152 — position and weather

sailwx.info

Track history (hours):
 
Tides and Currents Weather Stations Pressure Air Temp Water Temp Dewpoint Dewpoint Depression Visibility Wind Speed Wind Dir Waves Ship Positions

Mariq

Last reported at 2017-Mar-23 20:31 UTC. Time now 2017-Mar-24 06:14 UTC.
Position N 37°32' E 024°14'.

Length 57 m.

Type: Tanker. MMSI: 239758424.

Date/timePositionNaut miles runAvg speedWind from/ knotsBaromVisibWave heightAir tempDewpointWater temp
2017-Mar-23 20:31N 37°32' E 024°14'26 8.7
2017-Mar-23 17:30N 37°22' E 024°45'9 9.7
2017-Mar-23 16:33N 37°21' E 024°56'9 9.5
2017-Mar-23 15:33N 37°21' E 025°08'9 9.2
2017-Mar-23 14:33N 37°20' E 025°19'9 8.8
2017-Mar-23 13:33N 37°17' E 025°30'12 8.0
2017-Mar-23 12:04N 37°16' E 025°45'4 8.0
2017-Mar-23 11:33N 37°16' E 025°50'  
2017-Mar-16 07:33N 37°18' E 025°48'13 9.1
2017-Mar-16 06:05N 37°19' E 025°31'5 9.3
2017-Mar-16 05:33N 37°19' E 025°25'9 9.4
2017-Mar-16 04:33N 37°20' E 025°13'13 9.4
2017-Mar-16 03:09N 37°21' E 024°57'41 1.3
2017-Mar-14 19:30N 37°36' E 024°08'39 9.7
2017-Mar-14 15:26N 37°20' E 024°54'10 9.7
2017-Mar-14 14:26N 37°20' E 025°06'9 9.8
2017-Mar-14 13:33N 37°20' E 025°17'10 9.8
2017-Mar-14 12:33N 37°20' E 025°29'13 9.6
2017-Mar-14 11:13N 37°19' E 025°45'6 9.3
2017-Mar-14 10:33N 37°19' E 025°53'  
Track history (hours):
 
Tides and Currents Weather Stations Pressure Air Temp Water Temp Dewpoint Dewpoint Depression Visibility Wind Speed Wind Dir Waves Ship Positions

Mariq

Last reported at 2017-Mar-23 20:31 UTC. Time now 2017-Mar-24 06:14 UTC.
Position N 37°32' E 024°14'.

Length 57 m.

Type: Tanker. MMSI: 239758424.

Date/timePositionNaut miles runAvg speedWind from/ knotsBaromVisibWave heightAir tempDewpointWater temp
2017-Mar-23 20:31N 37°32' E 024°14'26 8.7
2017-Mar-23 17:30N 37°22' E 024°45'9 9.7
2017-Mar-23 16:33N 37°21' E 024°56'9 9.5
2017-Mar-23 15:33N 37°21' E 025°08'9 9.2
2017-Mar-23 14:33N 37°20' E 025°19'9 8.8
2017-Mar-23 13:33N 37°17' E 025°30'12 8.0
2017-Mar-23 12:04N 37°16' E 025°45'4 8.0
2017-Mar-23 11:33N 37°16' E 025°50'  
2017-Mar-16 07:33N 37°18' E 025°48'13 9.1
2017-Mar-16 06:05N 37°19' E 025°31'5 9.3
2017-Mar-16 05:33N 37°19' E 025°25'9 9.4
2017-Mar-16 04:33N 37°20' E 025°13'13 9.4
2017-Mar-16 03:09N 37°21' E 024°57'41 1.3
2017-Mar-14 19:30N 37°36' E 024°08'39 9.7
2017-Mar-14 15:26N 37°20' E 024°54'10 9.7
2017-Mar-14 14:26N 37°20' E 025°06'9 9.8
2017-Mar-14 13:33N 37°20' E 025°17'10 9.8
2017-Mar-14 12:33N 37°20' E 025°29'13 9.6
2017-Mar-14 11:13N 37°19' E 025°45'6 9.3
2017-Mar-14 10:33N 37°19' E 025°53'  

Dump ship's entire track history